Time;durP1;ratioP1;P1;durP2;ratioP2;P2;SDS_P1;SDS_P2;PMS_P1;PMS_P2;Temp;Humidity;BMP_temperature;BMP_pressure;BME280_temperature;BME280_humidity;BME280_pressure;Samples;Min_cycle;Max_cycle;Signal;HPM_P1;HPM_P2
2022/12/04 00:01:55;;;;;;;71.97;27.20;;;3.00;92.50;;;;;;4971976;28;20169;-63
2022/12/04 00:04:20;;;;;;;78.03;27.55;;;3.00;92.70;;;;;;4971315;28;20708;-63
2022/12/04 00:06:46;;;;;;;67.50;27.90;;;2.90;92.70;;;;;;4975762;28;20061;-63
2022/12/04 00:09:12;;;;;;;75.15;27.17;;;2.90;92.80;;;;;;4979189;28;20098;-63
2022/12/04 00:11:38;;;;;;;75.22;26.30;;;3.00;92.70;;;;;;4972476;28;20471;-63
2022/12/04 00:14:04;;;;;;;63.40;25.48;;;2.90;92.80;;;;;;4976581;28;20034;-63
2022/12/04 00:16:30;;;;;;;74.53;26.40;;;2.90;92.80;;;;;;4977473;28;20022;-63
2022/12/04 00:18:57;;;;;;;71.68;25.65;;;2.90;93.00;;;;;;4972366;28;20077;-63
2022/12/04 00:21:24;;;;;;;67.90;25.92;;;2.90;92.90;;;;;;4974804;28;20102;-63
2022/12/04 00:23:50;;;;;;;71.13;27.13;;;3.00;92.90;;;;;;4973041;28;20477;-63
2022/12/04 00:26:22;;;;;;;61.53;25.05;;;3.00;92.90;;;;;;4959872;28;20056;-63
2022/12/04 00:28:48;;;;;;;66.13;26.35;;;3.10;92.90;;;;;;4976859;28;20077;-63
2022/12/04 00:31:17;;;;;;;72.63;28.85;;;3.10;92.70;;;;;;4975130;28;20093;-63
2022/12/04 00:33:43;;;;;;;75.18;27.70;;;3.10;92.50;;;;;;4975581;28;20786;-63
2022/12/04 00:36:11;;;;;;;66.00;26.08;;;3.10;92.60;;;;;;4972874;28;20117;-63
2022/12/04 00:38:38;;;;;;;73.50;27.42;;;3.10;92.60;;;;;;4975380;28;20039;-63
2022/12/04 00:41:09;;;;;;;66.15;24.52;;;3.10;92.80;;;;;;4972105;28;20026;-63
2022/12/04 00:43:34;;;;;;;70.28;27.10;;;3.10;92.70;;;;;;4969840;28;20045;-63
2022/12/04 00:46:00;;;;;;;68.88;26.17;;;3.20;92.60;;;;;;4981808;28;20030;-63
2022/12/04 00:48:26;;;;;;;67.32;27.05;;;3.20;92.50;;;;;;4974183;28;20739;-63
2022/12/04 00:50:53;;;;;;;69.38;26.80;;;3.20;92.60;;;;;;4979981;28;20926;-63
2022/12/04 00:53:19;;;;;;;68.43;26.77;;;3.20;92.60;;;;;;4978426;28;20023;-63
2022/12/04 00:55:45;;;;;;;67.93;26.77;;;3.20;92.50;;;;;;4971908;28;20043;-63
2022/12/04 00:58:11;;;;;;;69.10;26.35;;;3.20;92.30;;;;;;4972942;28;20069;-63
2022/12/04 01:00:40;;;;;;;65.93;25.13;;;3.20;92.30;;;;;;4972840;28;20034;-63
2022/12/04 01:03:07;;;;;;;63.88;26.38;;;3.20;92.50;;;;;;4972860;28;20022;-62
2022/12/04 01:05:39;;;;;;;69.60;26.98;;;3.20;92.60;;;;;;4980134;28;20030;-63
2022/12/04 01:08:05;;;;;;;74.53;27.30;;;3.20;92.60;;;;;;4971187;28;20126;-63
2022/12/04 01:10:30;;;;;;;71.43;25.67;;;3.20;92.60;;;;;;4974382;28;20038;-63
2022/12/04 01:12:56;;;;;;;75.32;28.67;;;3.20;92.60;;;;;;4979608;28;20045;-63
2022/12/04 01:15:22;;;;;;;72.93;27.98;;;3.20;92.70;;;;;;4972001;28;20050;-63
2022/12/04 01:17:48;;;;;;;71.32;27.98;;;3.20;92.70;;;;;;4973713;28;20064;-63
2022/12/04 01:20:15;;;;;;;69.57;27.88;;;3.20;92.50;;;;;;4969863;28;20589;-63
2022/12/04 01:22:41;;;;;;;86.15;29.58;;;3.20;92.60;;;;;;4975495;28;20030;-63
2022/12/04 01:25:08;;;;;;;66.57;27.17;;;3.20;92.50;;;;;;4972271;28;20117;-63
2022/12/04 01:27:34;;;;;;;70.97;27.10;;;3.20;92.50;;;;;;4971682;28;20079;-63
2022/12/04 01:30:00;;;;;;;77.75;27.42;;;3.10;92.50;;;;;;4975628;28;20038;-63
2022/12/04 01:32:25;;;;;;;70.57;26.85;;;3.10;92.80;;;;;;4975304;28;20096;-62
2022/12/04 01:34:51;;;;;;;75.75;27.25;;;3.10;92.80;;;;;;4969528;28;20038;-63
2022/12/04 01:37:17;;;;;;;67.35;26.08;;;3.10;93.00;;;;;;4971375;28;20968;-63
2022/12/04 01:39:43;;;;;;;69.68;27.80;;;3.10;93.00;;;;;;4964849;28;20030;-62
2022/12/04 01:42:13;;;;;;;68.78;26.42;;;3.20;93.00;;;;;;4974966;28;20104;-63
2022/12/04 01:44:42;;;;;;;71.93;27.25;;;3.20;93.00;;;;;;4975554;28;20824;-63
2022/12/04 01:47:09;;;;;;;71.65;27.02;;;3.10;92.90;;;;;;4970991;28;20037;-63
2022/12/04 01:49:37;;;;;;;77.07;29.95;;;3.20;93.00;;;;;;4976296;28;20044;-62
2022/12/04 01:52:14;;;;;;;71.72;27.35;;;3.10;93.00;;;;;;4970491;28;20117;-63
2022/12/04 01:54:44;;;;;;;70.18;26.63;;;3.00;93.00;;;;;;4969182;28;20478;-63
2022/12/04 01:57:18;;;;;;;68.10;26.42;;;3.00;93.20;;;;;;4970823;28;20042;-63
2022/12/04 01:59:58;;;;;;;75.65;26.80;;;3.00;93.40;;;;;;4974735;28;20028;-63
2022/12/04 02:02:36;;;;;;;69.18;27.02;;;3.10;93.40;;;;;;4976674;28;20505;-62
2022/12/04 02:05:04;;;;;;;80.60;28.52;;;3.10;93.30;;;;;;4968930;28;20090;-63
2022/12/04 02:07:30;;;;;;;80.45;30.35;;;3.10;93.30;;;;;;4977137;28;20061;-62
2022/12/04 02:10:02;;;;;;;78.20;29.73;;;3.20;93.10;;;;;;4972988;28;20027;-63
2022/12/04 02:12:49;;;;;;;87.47;28.17;;;3.00;93.60;;;;;;4971451;28;20503;-63
2022/12/04 02:15:27;;;;;;;76.90;27.80;;;3.00;93.80;;;;;;4969438;28;20030;-62
2022/12/04 02:18:11;;;;;;;80.18;28.45;;;3.00;93.90;;;;;;4967786;28;20057;-62
2022/12/04 02:20:58;;;;;;;69.95;27.42;;;3.00;93.80;;;;;;4973531;28;20030;-62
2022/12/04 02:23:45;;;;;;;79.80;30.10;;;3.10;93.70;;;;;;4971604;28;20026;-62
2022/12/04 02:26:43;;;;;;;77.60;27.20;;;3.10;93.90;;;;;;4955425;28;20023;-61
2022/12/04 02:29:18;;;;;;;78.60;27.70;;;3.10;93.70;;;;;;4970748;28;20065;-62
2022/12/04 02:32:06;;;;;;;81.47;29.02;;;3.20;93.70;;;;;;4971272;28;20038;-62
2022/12/04 02:34:50;;;;;;;74.20;26.42;;;3.20;93.70;;;;;;4970239;28;20501;-62
2022/12/04 02:37:24;;;;;;;77.75;26.98;;;3.20;93.80;;;;;;4970872;28;20038;-62
2022/12/04 02:39:52;;;;;;;76.72;27.85;;;3.20;93.80;;;;;;4977942;28;20038;-62
2022/12/04 02:42:37;;;;;;;78.40;28.00;;;3.10;93.90;;;;;;4970052;28;20749;-62
2022/12/04 02:45:30;;;;;;;77.50;28.58;;;3.10;94.00;;;;;;4973504;28;20201;-62
2022/12/04 02:48:00;;;;;;;73.97;27.45;;;3.10;94.10;;;;;;4970374;28;20034;-62
2022/12/04 02:50:26;;;;;;;71.90;26.27;;;3.00;94.10;;;;;;4968508;28;20045;-62
2022/12/04 02:52:57;;;;;;;78.47;27.85;;;3.00;94.10;;;;;;4968810;28;20038;-61
2022/12/04 02:55:46;;;;;;;70.53;27.95;;;3.00;94.20;;;;;;4968067;28;20454;-61
2022/12/04 02:58:24;;;;;;;75.43;28.73;;;3.00;94.20;;;;;;4973492;28;20039;-62
2022/12/04 03:00:53;;;;;;;77.72;30.30;;;3.00;94.30;;;;;;4969421;28;20033;-62
2022/12/04 03:03:29;;;;;;;74.72;26.92;;;3.10;94.20;;;;;;4969764;28;20057;-62
2022/12/04 03:05:54;;;;;;;;;;;3.10;94.20;;;;;;4969837;28;20030;-62
2022/12/04 03:08:26;;;;;;;85.93;30.00;;;3.10;94.20;;;;;;4968695;28;19969;-62
2022/12/04 03:10:56;;;;;;;86.25;29.63;;;3.10;94.30;;;;;;4969649;28;20538;-62
2022/12/04 03:13:28;;;;;;;83.75;29.38;;;3.20;94.10;;;;;;4974350;28;20041;-62
2022/12/04 03:16:16;;;;;;;77.28;28.00;;;3.20;94.00;;;;;;4968958;28;20085;-62
2022/12/04 03:18:48;;;;;;;77.90;31.15;;;3.20;94.10;;;;;;4973379;28;20031;-61
2022/12/04 03:21:18;;;;;;;81.85;29.02;;;3.10;94.10;;;;;;4971162;28;20034;-61
2022/12/04 03:23:49;;;;;;;73.03;28.70;;;3.10;94.20;;;;;;4976153;28;20144;-61
2022/12/04 03:26:30;;;;;;;79.88;30.20;;;3.10;94.20;;;;;;4975308;28;20027;-63
2022/12/04 03:29:31;;;;;;;80.72;29.17;;;3.10;94.40;;;;;;4971747;28;20224;-64
2022/12/04 03:32:11;;;;;;;80.97;27.95;;;3.10;94.40;;;;;;4967968;28;20045;-64
2022/12/04 03:34:54;;;;;;;77.97;27.30;;;3.10;94.50;;;;;;4972790;28;20041;-62
2022/12/04 03:37:39;;;;;;;83.18;29.17;;;3.10;94.40;;;;;;4973640;28;20034;-62
2022/12/04 03:40:09;;;;;;;75.15;29.48;;;3.20;94.40;;;;;;4972670;28;20030;-62
2022/12/04 03:42:43;;;;;;;76.53;29.42;;;3.20;94.10;;;;;;4976725;28;20030;-62
2022/12/04 03:45:29;;;;;;;78.07;28.83;;;3.20;94.20;;;;;;4973494;28;20057;-61
2022/12/04 03:48:13;;;;;;;84.30;30.42;;;3.20;94.20;;;;;;4969816;28;20034;-62
2022/12/04 03:51:01;;;;;;;77.88;29.50;;;3.30;94.10;;;;;;4971064;28;20093;-61
2022/12/04 03:53:35;;;;;;;79.30;29.55;;;3.30;93.90;;;;;;4970372;28;20117;-61
2022/12/04 03:56:19;;;;;;;83.03;30.00;;;3.30;93.90;;;;;;4969563;28;20041;-64
2022/12/04 03:58:59;;;;;;;76.15;28.95;;;3.20;93.90;;;;;;4968863;28;20033;-62
2022/12/04 04:01:33;;;;;;;80.75;30.20;;;3.20;94.00;;;;;;4972672;28;20046;-62
2022/12/04 04:04:03;;;;;;;75.72;27.90;;;3.20;94.10;;;;;;4971428;28;20095;-61
2022/12/04 04:06:37;;;;;;;87.03;29.65;;;3.10;94.10;;;;;;4970770;28;20034;-62
2022/12/04 04:09:14;;;;;;;75.82;28.63;;;3.10;94.00;;;;;;4969514;28;20189;-62
2022/12/04 04:11:48;;;;;;;78.45;28.95;;;3.10;94.60;;;;;;4977558;28;20042;-62
2022/12/04 04:25:42;;;;;;;76.10;27.20;;;3.10;94.30;;;;;;4972984;28;20035;-65
2022/12/04 04:28:29;;;;;;;78.70;29.27;;;3.20;94.30;;;;;;4974350;28;20057;-65
2022/12/04 04:31:03;;;;;;;82.35;29.77;;;3.20;94.10;;;;;;4979314;28;20049;-65
2022/12/04 04:33:31;;;;;;;94.28;32.50;;;3.20;94.20;;;;;;4963160;28;20074;-65
2022/12/04 04:36:13;;;;;;;76.93;28.90;;;3.30;94.20;;;;;;4976945;28;20035;-65
2022/12/04 04:38:49;;;;;;;85.22;30.40;;;3.30;94.10;;;;;;4973369;28;20050;-65
2022/12/04 04:41:44;;;;;;;77.80;29.40;;;3.30;94.20;;;;;;4958010;28;20038;-66
2022/12/04 04:44:44;;;;;;;84.93;30.58;;;3.30;94.10;;;;;;4975526;28;20881;-65
2022/12/04 04:47:19;;;;;;;78.15;27.42;;;3.20;94.20;;;;;;4956427;28;20058;-66
2022/12/04 04:49:48;;;;;;;85.55;29.05;;;3.20;94.30;;;;;;4969199;28;20515;-65
2022/12/04 04:52:17;;;;;;;84.55;31.02;;;3.20;94.10;;;;;;4980415;28;20030;-65
2022/12/04 04:54:44;;;;;;;83.45;29.13;;;3.20;94.40;;;;;;4972281;28;20033;-65
2022/12/04 04:57:10;;;;;;;86.70;29.05;;;3.10;94.40;;;;;;4974453;28;20399;-65
2022/12/04 04:59:35;;;;;;;94.35;31.77;;;3.10;94.50;;;;;;4976740;28;20031;-63
2022/12/04 05:02:01;;;;;;;89.55;30.50;;;3.10;94.50;;;;;;4971394;28;20026;-62
2022/12/04 05:04:27;;;;;;;91.22;29.80;;;3.20;94.30;;;;;;4969624;28;20030;-63
2022/12/04 05:06:53;;;;;;;79.50;28.25;;;3.20;94.20;;;;;;4971157;28;20038;-63
2022/12/04 05:09:19;;;;;;;85.05;28.85;;;3.30;94.30;;;;;;4971785;28;20034;-62
2022/12/04 05:11:44;;;;;;;80.63;29.42;;;3.30;94.30;;;;;;4979054;28;20414;-63
2022/12/04 05:14:10;;;;;;;89.75;31.73;;;3.30;94.20;;;;;;4974051;28;20117;-63
2022/12/04 05:16:38;;;;;;;89.82;29.52;;;3.30;94.20;;;;;;4976311;28;20030;-62
2022/12/04 05:21:48;;;;;;;89.88;29.40;;;3.40;94.20;;;;;;4971515;28;20031;-63
2022/12/04 05:24:14;;;;;;;81.43;28.15;;;3.40;94.20;;;;;;4970476;28;20546;-62
2022/12/04 05:26:39;;;;;;;95.57;31.83;;;3.40;94.10;;;;;;4968415;28;20806;-63
2022/12/04 05:29:05;;;;;;;86.97;29.83;;;3.40;94.10;;;;;;4973449;28;20046;-63
2022/12/04 05:31:31;;;;;;;77.90;28.98;;;3.50;94.20;;;;;;4976766;28;20072;-63
2022/12/04 05:33:57;;;;;;;84.53;30.73;;;3.40;94.10;;;;;;4971813;28;20034;-63
2022/12/04 05:36:22;;;;;;;85.80;29.38;;;3.40;94.20;;;;;;4972043;28;20827;-62
2022/12/04 05:38:48;;;;;;;84.47;30.33;;;3.40;94.20;;;;;;4974434;28;20126;-62
2022/12/04 05:41:14;;;;;;;89.60;30.05;;;3.40;94.00;;;;;;4972000;28;20035;-62
2022/12/04 05:43:40;;;;;;;80.10;28.75;;;3.40;94.10;;;;;;4971476;28;20034;-62
2022/12/04 05:46:07;;;;;;;88.18;30.45;;;3.40;94.20;;;;;;4968149;28;20106;-62
2022/12/04 05:48:34;;;;;;;79.45;28.42;;;3.40;94.30;;;;;;4961216;28;20033;-62
2022/12/04 05:51:04;;;;;;;82.97;29.55;;;3.40;94.20;;;;;;4972920;28;20808;-62
2022/12/04 05:53:30;;;;;;;78.60;28.98;;;3.40;94.30;;;;;;4975060;28;20022;-63
2022/12/04 05:55:57;;;;;;;90.85;30.50;;;3.40;94.30;;;;;;4977070;28;20398;-62
2022/12/04 05:58:23;;;;;;;77.95;30.10;;;3.50;94.10;;;;;;4977202;28;20927;-62
2022/12/04 06:00:50;;;;;;;80.47;28.73;;;3.50;94.20;;;;;;4983683;28;20034;-62
2022/12/04 06:03:16;;;;;;;80.38;27.52;;;3.30;94.10;;;;;;4974094;28;20034;-65
2022/12/04 06:05:42;;;;;;;70.93;25.98;;;3.30;94.40;;;;;;4981038;28;20053;-66
2022/12/04 06:08:07;;;;;;;99.90;30.83;;;3.40;94.50;;;;;;4977935;28;20039;-66
2022/12/04 06:10:33;;;;;;;77.93;29.77;;;3.40;94.50;;;;;;4973598;28;20030;-63
2022/12/04 06:12:59;;;;;;;78.18;28.92;;;3.40;94.50;;;;;;4978238;28;20038;-62
2022/12/04 06:15:25;;;;;;;77.22;28.65;;;3.40;94.50;;;;;;4979096;28;20048;-63
2022/12/04 06:17:51;;;;;;;82.63;29.48;;;3.40;94.30;;;;;;4975614;28;20530;-62
2022/12/04 06:20:17;;;;;;;81.30;28.83;;;3.40;94.20;;;;;;4974643;28;20034;-63
2022/12/04 06:22:42;;;;;;;81.20;30.20;;;3.40;94.50;;;;;;4972678;28;20101;-62
2022/12/04 06:25:09;;;;;;;75.78;27.95;;;3.40;94.40;;;;;;4978869;28;20030;-62
2022/12/04 06:27:35;;;;;;;81.88;28.83;;;3.40;94.50;;;;;;4976465;28;20490;-62
2022/12/04 06:30:01;;;;;;;79.88;30.55;;;3.30;94.40;;;;;;4972160;28;20041;-65
2022/12/04 06:32:27;;;;;;;80.28;28.02;;;3.20;94.70;;;;;;4977698;28;20041;-65
2022/12/04 06:34:53;;;;;;;70.50;27.38;;;3.30;94.60;;;;;;4978532;28;20033;-62
2022/12/04 06:37:21;;;;;;;82.13;28.52;;;3.30;94.50;;;;;;4973904;28;20076;-63
2022/12/04 06:39:46;;;;;;;82.13;29.60;;;3.30;94.50;;;;;;4971038;28;20524;-65
2022/12/04 06:42:12;;;;;;;75.72;27.48;;;3.30;94.60;;;;;;4967271;28;20031;-65
2022/12/04 06:44:38;;;;;;;79.35;30.10;;;3.30;94.50;;;;;;4978488;28;20908;-65
2022/12/04 06:47:04;;;;;;;74.15;27.80;;;3.40;94.40;;;;;;4973247;28;20727;-66
2022/12/04 06:49:30;;;;;;;77.38;27.98;;;3.40;94.40;;;;;;4983080;28;20026;-66
2022/12/04 06:51:55;;;;;;;74.80;28.52;;;3.40;94.40;;;;;;4980922;28;20030;-62
2022/12/04 06:54:21;;;;;;;83.45;29.83;;;3.40;94.30;;;;;;4974058;28;20498;-63
2022/12/04 06:56:48;;;;;;;81.63;29.45;;;3.40;94.50;;;;;;4984459;28;20037;-62
2022/12/04 06:59:13;;;;;;;69.90;27.90;;;3.40;94.50;;;;;;4973728;28;20042;-62
2022/12/04 07:01:39;;;;;;;81.05;27.95;;;3.30;94.60;;;;;;4970491;28;20034;-66
2022/12/04 07:04:05;;;;;;;81.18;28.60;;;3.30;94.80;;;;;;4987214;28;20041;-66
2022/12/04 07:06:34;;;;;;;76.18;27.58;;;3.20;94.90;;;;;;4985463;28;20060;-66
2022/12/04 07:09:10;;;;;;;83.22;30.95;;;3.20;95.00;;;;;;4977548;28;20041;-62
2022/12/04 07:11:36;;;;;;;79.82;29.80;;;3.20;94.80;;;;;;4980909;28;20099;-63
2022/12/04 07:14:02;;;;;;;82.00;28.70;;;3.20;95.00;;;;;;4964870;28;20055;-66
2022/12/04 07:16:29;;;;;;;73.22;27.05;;;3.20;95.00;;;;;;4977243;28;20113;-65
2022/12/04 07:18:58;;;;;;;74.25;28.25;;;3.30;94.90;;;;;;4979066;28;20049;-66
2022/12/04 07:21:29;;;;;;;71.43;26.85;;;3.30;94.90;;;;;;4975606;28;20035;-63
2022/12/04 07:23:58;;;;;;;81.38;27.25;;;3.20;94.90;;;;;;4976420;28;20031;-65
2022/12/04 07:26:24;;;;;;;67.93;26.70;;;3.30;95.00;;;;;;4971536;28;20121;-62
2022/12/04 07:28:50;;;;;;;66.70;25.70;;;3.40;95.20;;;;;;4988411;28;20045;-62
2022/12/04 07:31:19;;;;;;;77.97;27.00;;;3.40;94.80;;;;;;4976918;28;20037;-62
2022/12/04 07:33:45;;;;;;;71.00;27.38;;;3.40;94.50;;;;;;4971098;28;20085;-63
2022/12/04 07:36:14;;;;;;;80.03;28.67;;;3.40;94.80;;;;;;4975733;28;20030;-62
2022/12/04 07:38:40;;;;;;;76.93;28.95;;;3.30;94.90;;;;;;4981848;28;20455;-62
2022/12/04 07:41:07;;;;;;;70.10;25.88;;;3.30;95.10;;;;;;4983858;28;20034;-63
2022/12/04 07:43:33;;;;;;;70.65;27.33;;;3.30;95.10;;;;;;4963277;28;20722;-62
2022/12/04 07:46:05;;;;;;;67.90;28.40;;;3.40;95.20;;;;;;4985102;28;20026;-64
2022/12/04 07:48:30;;;;;;;76.47;26.60;;;3.40;95.10;;;;;;4984032;28;20447;-65
2022/12/04 07:51:13;;;;;;;75.72;29.35;;;3.40;94.90;;;;;;4988977;28;20050;-65
2022/12/04 07:53:40;;;;;;;77.53;29.27;;;3.50;95.00;;;;;;4986876;28;20456;-66
2022/12/04 07:56:06;;;;;;;75.93;28.13;;;3.40;94.70;;;;;;4984065;28;20056;-65
2022/12/04 07:58:32;;;;;;;73.55;27.05;;;3.50;94.70;;;;;;4978004;28;20492;-62
2022/12/04 08:01:13;;;;;;;78.30;28.80;;;3.60;94.70;;;;;;4966691;28;20029;-63
2022/12/04 08:03:41;;;;;;;74.03;28.08;;;3.60;94.60;;;;;;4975003;28;20533;-62
2022/12/04 08:06:07;;;;;;;77.63;27.95;;;3.60;94.50;;;;;;4978295;28;20038;-63
2022/12/04 08:08:34;;;;;;;69.65;25.52;;;3.60;94.70;;;;;;4976387;28;20034;-62
2022/12/04 08:11:04;;;;;;;75.80;28.23;;;3.60;94.60;;;;;;4984293;28;20026;-62
2022/12/04 08:13:29;;;;;;;77.40;27.98;;;3.70;94.50;;;;;;4977948;28;20040;-62
2022/12/04 08:15:55;;;;;;;74.32;28.42;;;3.70;94.50;;;;;;4975171;28;20046;-63
2022/12/04 08:18:21;;;;;;;72.40;27.02;;;3.70;94.60;;;;;;4985809;28;20027;-63
2022/12/04 08:20:47;;;;;;;76.85;28.73;;;3.70;94.50;;;;;;4967346;28;20782;-66
2022/12/04 08:23:13;;;;;;;74.13;28.40;;;3.70;94.40;;;;;;4978358;28;20147;-66
2022/12/04 08:25:39;;;;;;;70.10;24.90;;;3.70;94.30;;;;;;4981965;28;20038;-66
2022/12/04 08:28:06;;;;;;;75.38;26.95;;;3.70;94.40;;;;;;4973954;28;20069;-66
2022/12/04 08:30:33;;;;;;;78.50;27.67;;;3.70;94.40;;;;;;4979508;28;20133;-65
2022/12/04 08:32:59;;;;;;;82.88;29.77;;;3.70;94.30;;;;;;4983567;28;20034;-66
2022/12/04 08:35:24;;;;;;;80.45;27.90;;;3.80;94.30;;;;;;4979956;28;20045;-66
2022/12/04 08:37:50;;;;;;;74.55;28.65;;;3.70;94.20;;;;;;4977535;28;20030;-65
2022/12/04 08:40:16;;;;;;;79.55;29.90;;;3.60;94.40;;;;;;4977495;28;20162;-66
2022/12/04 08:42:42;;;;;;;72.68;27.35;;;3.60;94.50;;;;;;4985662;28;20038;-67
2022/12/04 08:55:25;;;;;;;64.70;24.90;;;3.80;94.30;;;;;;5206479;23;20106;-63
2022/12/04 08:57:52;;;;;;;77.07;27.25;;;3.80;94.10;;;;;;4939744;28;20510;-63
2022/12/04 09:00:18;;;;;;;73.35;26.20;;;3.90;94.10;;;;;;4956948;28;20031;-63
2022/12/04 09:02:47;;;;;;;76.80;27.10;;;3.80;93.90;;;;;;4968731;28;20030;-63
2022/12/04 09:05:12;;;;;;;72.28;27.48;;;3.80;94.10;;;;;;4963877;28;20027;-63
2022/12/04 09:07:38;;;;;;;81.30;28.05;;;3.80;94.00;;;;;;4962918;28;20039;-60
2022/12/04 09:10:05;;;;;;;74.97;25.25;;;3.80;94.30;;;;;;4963335;28;20030;-62
2022/12/04 09:12:30;;;;;;;82.15;27.77;;;3.90;94.20;;;;;;4964576;28;20061;-61
2022/12/04 09:14:56;;;;;;;76.28;27.52;;;3.80;94.00;;;;;;4962325;28;20034;-63
2022/12/04 09:17:22;;;;;;;78.97;27.88;;;3.80;94.10;;;;;;4962012;28;20122;-63
2022/12/04 09:19:48;;;;;;;69.45;27.65;;;3.80;94.00;;;;;;4964150;28;20108;-62
2022/12/04 09:22:14;;;;;;;74.85;27.40;;;3.70;94.20;;;;;;4961969;28;20478;-62
2022/12/04 09:24:40;;;;;;;72.10;28.67;;;3.70;94.30;;;;;;4935544;28;20035;-62
2022/12/04 09:27:06;;;;;;;77.57;27.65;;;3.70;94.20;;;;;;4958289;28;20383;-62
2022/12/04 09:29:31;;;;;;;74.55;27.13;;;3.80;94.10;;;;;;4930984;28;20049;-63
2022/12/04 09:31:57;;;;;;;68.57;26.48;;;3.80;94.30;;;;;;4962995;28;20505;-63
2022/12/04 09:34:23;;;;;;;82.93;27.98;;;3.80;94.30;;;;;;4958289;28;20023;-63
2022/12/04 09:36:49;;;;;;;69.05;27.23;;;3.80;94.30;;;;;;4958911;28;20026;-63
2022/12/04 09:39:14;;;;;;;73.57;26.38;;;3.90;94.40;;;;;;4957770;28;20248;-63
2022/12/04 09:42:18;;;;;;;65.43;27.00;;;3.90;94.20;;;;;;4961804;28;20043;-62
2022/12/04 09:45:15;;;;;;;76.65;27.35;;;4.00;94.20;;;;;;4964687;28;20033;-63
2022/12/04 09:47:45;;;;;;;65.30;26.17;;;4.00;94.10;;;;;;4960674;28;20040;-62
2022/12/04 09:50:21;;;;;;;69.32;27.02;;;4.10;94.00;;;;;;4963224;28;20049;-62
2022/12/04 09:53:05;;;;;;;66.50;27.48;;;4.10;94.00;;;;;;4964491;28;20038;-66
2022/12/04 09:55:46;;;;;;;65.90;24.65;;;4.20;94.00;;;;;;4952037;28;20082;-62
2022/12/04 09:58:22;;;;;;;69.22;27.50;;;4.20;93.90;;;;;;4963670;28;20042;-62
2022/12/04 10:00:49;;;;;;;;;;;4.20;93.60;;;;;;4968441;28;20979;-62
2022/12/04 10:03:16;;;;;;;;;;;4.20;93.80;;;;;;4960535;28;19972;-62
2022/12/04 10:06:08;;;;;;;68.40;25.42;;;4.20;93.80;;;;;;4959765;28;20004;-63
2022/12/04 10:08:40;;;;;;;69.32;27.02;;;4.20;94.00;;;;;;4961797;28;20042;-63
2022/12/04 10:11:09;;;;;;;74.25;26.20;;;4.20;93.80;;;;;;4955405;28;20038;-63
2022/12/04 10:14:12;;;;;;;72.20;26.85;;;4.20;93.90;;;;;;4960118;28;20045;-63
2022/12/04 10:16:44;;;;;;;76.70;26.55;;;4.20;93.90;;;;;;4961663;28;20034;-62
2022/12/04 10:19:20;;;;;;;81.45;27.33;;;4.20;93.90;;;;;;4960841;28;20483;-63
2022/12/04 10:21:51;;;;;;;72.15;27.20;;;4.20;93.70;;;;;;4962872;28;20037;-63
2022/12/04 10:24:38;;;;;;;68.22;27.05;;;4.30;94.00;;;;;;4963896;28;20034;-63
2022/12/04 10:27:16;;;;;;;76.57;27.88;;;4.30;93.70;;;;;;4958962;28;20774;-63
2022/12/04 10:29:48;;;;;;;64.70;26.35;;;4.30;93.90;;;;;;4956228;28;20026;-63
2022/12/04 10:32:24;;;;;;;64.80;24.73;;;4.30;94.00;;;;;;4943603;28;20038;-64
2022/12/04 10:34:54;;;;;;;70.32;25.58;;;4.30;93.70;;;;;;4961936;28;20088;-64
2022/12/04 10:37:22;;;;;;;58.65;25.42;;;4.30;93.80;;;;;;4959634;28;20050;-63
2022/12/04 10:39:53;;;;;;;72.72;29.38;;;4.40;93.70;;;;;;4958483;28;20443;-63
2022/12/04 10:42:23;;;;;;;69.38;26.50;;;4.40;93.70;;;;;;4956133;28;20133;-63
2022/12/04 10:44:49;;;;;;;71.75;27.83;;;4.40;93.70;;;;;;4961141;28;20081;-63
2022/12/04 10:47:15;;;;;;;70.32;27.25;;;4.40;93.70;;;;;;4961361;28;20035;-64
2022/12/04 10:49:40;;;;;;;69.35;28.67;;;4.40;93.60;;;;;;4958636;28;20027;-63
2022/12/04 10:52:11;;;;;;;74.80;25.33;;;4.40;93.40;;;;;;4959568;28;20537;-63
2022/12/04 10:54:58;;;;;;;72.93;27.15;;;4.40;93.60;;;;;;4958026;28;20044;-64
2022/12/04 10:57:52;;;;;;;72.10;25.63;;;4.40;93.80;;;;;;4958149;28;20053;-63
2022/12/04 11:00:31;;;;;;;66.63;25.83;;;4.40;93.90;;;;;;4961857;28;20034;-62
2022/12/04 11:03:07;;;;;;;70.00;26.15;;;4.40;93.90;;;;;;4957789;28;20046;-62
2022/12/04 11:05:54;;;;;;;;;;;4.40;93.80;;;;;;4958735;28;20070;-62
2022/12/04 11:08:36;;;;;;;70.20;26.48;;;4.40;93.70;;;;;;4958147;28;20028;-62
2022/12/04 11:11:06;;;;;;;72.38;25.80;;;4.40;93.90;;;;;;4958873;28;20254;-62
2022/12/04 11:13:32;;;;;;;88.45;27.75;;;4.40;93.70;;;;;;4960300;28;20034;-62
2022/12/04 11:15:58;;;;;;;79.70;27.65;;;4.40;93.70;;;;;;4960064;28;20023;-62
2022/12/04 11:18:30;;;;;;;71.53;27.30;;;4.40;93.80;;;;;;4960226;28;20062;-63
2022/12/04 11:21:28;;;;;;;77.72;28.27;;;4.40;93.90;;;;;;4961964;28;20041;-62
2022/12/04 11:23:54;;;;;;;69.20;26.55;;;4.50;93.80;;;;;;4960373;28;20031;-62
2022/12/04 11:26:36;;;;;;;69.70;25.80;;;4.50;93.70;;;;;;4967534;28;20034;-62
2022/12/04 11:29:04;;;;;;;69.05;27.77;;;4.50;93.90;;;;;;4961723;28;20030;-63
2022/12/04 11:31:31;;;;;;;69.15;26.38;;;4.60;93.90;;;;;;4961999;28;20034;-61
2022/12/04 11:34:01;;;;;;;66.13;26.25;;;4.60;93.70;;;;;;4964767;28;20038;-61
2022/12/04 11:36:36;;;;;;;63.13;23.92;;;4.60;93.70;;;;;;4961443;28;20043;-61
2022/12/04 11:39:31;;;;;;;71.10;26.52;;;4.60;94.00;;;;;;4961734;28;20150;-61
2022/12/04 11:42:02;;;;;;;71.07;26.40;;;4.70;93.40;;;;;;4954561;28;20034;-62
2022/12/04 11:44:31;;;;;;;69.03;25.80;;;4.70;93.30;;;;;;4961647;28;20065;-62
2022/12/04 11:47:00;;;;;;;69.55;26.73;;;4.60;93.20;;;;;;4960841;28;20027;-61
2022/12/04 11:49:27;;;;;;;71.82;25.95;;;4.60;93.50;;;;;;4957974;28;20073;-62
2022/12/04 11:52:02;;;;;;;62.35;25.65;;;4.60;93.30;;;;;;4965191;28;20038;-63
2022/12/04 11:54:55;;;;;;;70.72;25.80;;;4.60;93.30;;;;;;4964040;28;20038;-63
2022/12/04 11:57:46;;;;;;;65.22;24.73;;;4.60;93.50;;;;;;4959970;28;20046;-63
2022/12/04 12:00:21;;;;;;;60.95;25.98;;;4.60;93.50;;;;;;4962442;28;20557;-62
2022/12/04 12:03:03;;;;;;;66.28;26.42;;;4.50;93.50;;;;;;4959138;28;20035;-63
2022/12/04 12:05:52;;;;;;;63.80;24.33;;;4.50;93.50;;;;;;4961906;28;20057;-62
2022/12/04 12:08:41;;;;;;;64.68;24.63;;;4.50;93.60;;;;;;4962770;28;20038;-62
2022/12/04 12:11:33;;;;;;;68.40;24.33;;;4.60;93.70;;;;;;4963627;28;20042;-62
2022/12/04 12:14:27;;;;;;;65.50;24.30;;;4.60;93.70;;;;;;4960250;28;20034;-61
2022/12/04 12:17:20;;;;;;;69.28;25.67;;;4.60;93.70;;;;;;4959880;28;20030;-61
2022/12/04 12:20:11;;;;;;;63.60;24.50;;;4.60;93.60;;;;;;4947177;28;20042;-62
2022/12/04 12:22:57;;;;;;;68.80;25.67;;;4.60;93.50;;;;;;4963900;28;20026;-62
2022/12/04 12:25:48;;;;;;;76.82;25.27;;;4.50;93.50;;;;;;4961279;28;20030;-61
2022/12/04 12:28:39;;;;;;;61.78;24.48;;;4.40;93.90;;;;;;4958675;28;20109;-62
2022/12/04 12:31:27;;;;;;;69.38;24.38;;;4.50;94.00;;;;;;4958406;28;20066;-61
2022/12/04 12:34:15;;;;;;;60.80;24.10;;;4.50;93.90;;;;;;4926499;28;20803;-61
2022/12/04 12:36:45;;;;;;;72.57;25.60;;;4.50;93.90;;;;;;4961929;28;20039;-61
2022/12/04 12:39:13;;;;;;;61.72;23.38;;;4.50;93.70;;;;;;4961837;28;20034;-62
2022/12/04 12:41:49;;;;;;;66.53;26.42;;;4.60;93.70;;;;;;4957001;28;20098;-61
2022/12/04 12:44:36;;;;;;;67.97;25.90;;;4.60;93.70;;;;;;4963457;28;20031;-61
2022/12/04 12:47:13;;;;;;;69.40;23.20;;;4.60;93.60;;;;;;4958096;28;20397;-61
2022/12/04 12:49:56;;;;;;;66.07;24.83;;;4.60;93.80;;;;;;4960741;28;20073;-62
2022/12/04 12:52:28;;;;;;;65.43;23.95;;;4.60;93.90;;;;;;4961722;28;20035;-62
2022/12/04 12:55:24;;;;;;;62.55;23.25;;;4.60;93.70;;;;;;4957872;28;20857;-61
2022/12/04 12:57:56;;;;;;;72.03;25.63;;;4.60;93.60;;;;;;4951762;28;20106;-62
2022/12/04 13:00:23;;;;;;;62.08;24.95;;;4.60;93.70;;;;;;4959097;28;20049;-61
2022/12/04 13:03:03;;;;;;;64.68;24.20;;;4.60;93.70;;;;;;4962819;28;20035;-61
2022/12/04 13:05:42;;;;;;;63.00;24.90;;;4.60;93.90;;;;;;4964006;28;20034;-61
2022/12/04 13:08:28;;;;;;;64.20;24.90;;;4.60;94.10;;;;;;4963152;28;20034;-64
2022/12/04 13:11:16;;;;;;;63.15;25.13;;;4.70;93.90;;;;;;4957711;28;20446;-64
2022/12/04 13:13:47;;;;;;;65.63;24.92;;;4.70;93.90;;;;;;4961563;28;20129;-63
2022/12/04 13:16:29;;;;;;;58.83;24.15;;;4.70;93.90;;;;;;4965501;28;20029;-63
2022/12/04 13:19:17;;;;;;;60.05;23.98;;;4.70;93.90;;;;;;4968513;28;20149;-63
2022/12/04 13:21:46;;;;;;;55.65;22.80;;;4.80;93.70;;;;;;4960294;28;20114;-63
2022/12/04 13:24:39;;;;;;;55.58;24.40;;;4.80;93.50;;;;;;4960458;28;20079;-62
2022/12/04 13:27:44;;;;;;;66.30;24.92;;;4.80;93.60;;;;;;4956958;28;20050;-63
2022/12/04 13:30:26;;;;;;;61.47;23.88;;;4.70;93.80;;;;;;4965090;28;20053;-61